sensor_id;sensor_type;location;lat;lon;timestamp;temperature;humidity
484;DHT22;228;48.922;12.198;2023-08-12T05:33:34;19.40;87.60
484;DHT22;228;48.922;12.198;2023-08-12T05:45:55;20.20;84.00
484;DHT22;228;48.922;12.198;2023-08-12T05:53:31;20.50;82.70
484;DHT22;228;48.922;12.198;2023-08-12T05:56:25;20.80;82.00
484;DHT22;228;48.922;12.198;2023-08-12T05:58:50;21.00;81.20
484;DHT22;228;48.922;12.198;2023-08-12T06:10:26;21.10;81.50
484;DHT22;228;48.922;12.198;2023-08-12T06:16:44;21.00;83.60
484;DHT22;228;48.922;12.198;2023-08-12T06:19:14;21.40;81.00
484;DHT22;228;48.922;12.198;2023-08-12T06:22:15;21.20;80.80
484;DHT22;228;48.922;12.198;2023-08-12T06:25:00;21.50;80.90
484;DHT22;228;48.922;12.198;2023-08-12T06:27:26;21.80;80.20
484;DHT22;228;48.922;12.198;2023-08-12T06:29:55;22.00;78.10
484;DHT22;228;48.922;12.198;2023-08-12T06:32:33;22.10;78.40
484;DHT22;228;48.922;12.198;2023-08-12T06:35:07;22.00;78.50
484;DHT22;228;48.922;12.198;2023-08-12T06:37:39;21.80;80.10
484;DHT22;228;48.922;12.198;2023-08-12T06:40:09;22.10;78.60
484;DHT22;228;48.922;12.198;2023-08-12T06:42:51;22.30;77.90
484;DHT22;228;48.922;12.198;2023-08-12T06:45:17;22.20;77.40
484;DHT22;228;48.922;12.198;2023-08-12T06:47:43;22.40;76.90
484;DHT22;228;48.922;12.198;2023-08-12T06:50:10;22.50;76.60
484;DHT22;228;48.922;12.198;2023-08-12T06:52:36;22.70;75.90
484;DHT22;228;48.922;12.198;2023-08-12T06:55:17;22.70;75.70
484;DHT22;228;48.922;12.198;2023-08-12T06:58:13;22.60;76.70
484;DHT22;228;48.922;12.198;2023-08-12T07:00:48;22.60;75.80
484;DHT22;228;48.922;12.198;2023-08-12T07:03:23;22.90;74.00
484;DHT22;228;48.922;12.198;2023-08-12T07:05:50;23.20;75.00
484;DHT22;228;48.922;12.198;2023-08-12T07:08:16;23.10;72.60
484;DHT22;228;48.922;12.198;2023-08-12T07:10:48;23.20;72.50
484;DHT22;228;48.922;12.198;2023-08-12T07:13:19;23.30;71.90
484;DHT22;228;48.922;12.198;2023-08-12T07:15:54;23.30;72.60
484;DHT22;228;48.922;12.198;2023-08-12T07:18:20;23.40;72.40
484;DHT22;228;48.922;12.198;2023-08-12T07:20:48;23.30;72.80
484;DHT22;228;48.922;12.198;2023-08-12T07:26:56;23.50;71.20
484;DHT22;228;48.922;12.198;2023-08-12T07:36:13;23.80;72.10
484;DHT22;228;48.922;12.198;2023-08-12T07:38:41;24.40;69.10
484;DHT22;228;48.922;12.198;2023-08-12T07:41:27;24.90;66.80
484;DHT22;228;48.922;12.198;2023-08-12T07:44:19;24.80;68.30
484;DHT22;228;48.922;12.198;2023-08-12T07:47:08;25.00;65.70
484;DHT22;228;48.922;12.198;2023-08-12T07:49:36;24.80;66.00
484;DHT22;228;48.922;12.198;2023-08-12T07:52:13;25.10;65.50
484;DHT22;228;48.922;12.198;2023-08-12T07:54:42;25.60;65.60
484;DHT22;228;48.922;12.198;2023-08-12T07:57:11;25.60;68.00
484;DHT22;228;48.922;12.198;2023-08-12T08:09:19;25.80;62.40
484;DHT22;228;48.922;12.198;2023-08-12T08:11:46;25.70;61.40
484;DHT22;228;48.922;12.198;2023-08-12T08:14:38;25.90;62.00
484;DHT22;228;48.922;12.198;2023-08-12T08:17:04;26.50;59.50
484;DHT22;228;48.922;12.198;2023-08-12T08:19:45;26.80;58.20
484;DHT22;228;48.922;12.198;2023-08-12T08:22:11;26.70;57.50
484;DHT22;228;48.922;12.198;2023-08-12T08:24:54;27.10;56.60
484;DHT22;228;48.922;12.198;2023-08-12T08:27:26;27.00;57.50
484;DHT22;228;48.922;12.198;2023-08-12T08:30:05;27.40;57.50
484;DHT22;228;48.922;12.198;2023-08-12T08:32:33;27.50;55.80
484;DHT22;228;48.922;12.198;2023-08-12T08:34:59;27.50;54.50
484;DHT22;228;48.922;12.198;2023-08-12T08:37:28;27.50;55.50
484;DHT22;228;48.922;12.198;2023-08-12T08:39:54;27.80;54.20
484;DHT22;228;48.922;12.198;2023-08-12T08:42:21;27.90;54.50
484;DHT22;228;48.922;12.198;2023-08-12T08:44:52;28.00;55.00
484;DHT22;228;48.922;12.198;2023-08-12T08:47:26;28.10;54.30
484;DHT22;228;48.922;12.198;2023-08-12T08:49:56;28.10;54.50
484;DHT22;228;48.922;12.198;2023-08-12T08:52:26;28.20;53.20
484;DHT22;228;48.922;12.198;2023-08-12T08:54:55;28.30;54.50
484;DHT22;228;48.922;12.198;2023-08-12T08:57:27;27.80;52.30
484;DHT22;228;48.922;12.198;2023-08-12T08:59:54;27.70;53.70
484;DHT22;228;48.922;12.198;2023-08-12T09:02:24;27.80;53.80
484;DHT22;228;48.922;12.198;2023-08-12T09:04:53;28.50;52.50
484;DHT22;228;48.922;12.198;2023-08-12T09:07:21;28.40;51.20
484;DHT22;228;48.922;12.198;2023-08-12T09:09:48;28.60;51.40
484;DHT22;228;48.922;12.198;2023-08-12T09:12:18;28.80;51.60
484;DHT22;228;48.922;12.198;2023-08-12T09:14:45;28.60;52.10
484;DHT22;228;48.922;12.198;2023-08-12T09:17:15;28.70;50.30
484;DHT22;228;48.922;12.198;2023-08-12T09:19:42;28.90;51.70
484;DHT22;228;48.922;12.198;2023-08-12T09:22:09;28.80;51.50
484;DHT22;228;48.922;12.198;2023-08-12T09:24:49;29.10;50.30
484;DHT22;228;48.922;12.198;2023-08-12T09:27:22;29.70;49.40
484;DHT22;228;48.922;12.198;2023-08-12T09:29:48;29.70;50.70
484;DHT22;228;48.922;12.198;2023-08-12T09:32:24;30.40;48.00
484;DHT22;228;48.922;12.198;2023-08-12T09:35:39;30.20;48.50
484;DHT22;228;48.922;12.198;2023-08-12T09:38:10;30.40;49.70
484;DHT22;228;48.922;12.198;2023-08-12T09:40:40;30.40;48.70
484;DHT22;228;48.922;12.198;2023-08-12T09:43:10;30.30;48.10
484;DHT22;228;48.922;12.198;2023-08-12T09:45:40;30.30;47.40
484;DHT22;228;48.922;12.198;2023-08-12T09:48:16;30.60;48.20
484;DHT22;228;48.922;12.198;2023-08-12T09:50:42;31.20;44.90
484;DHT22;228;48.922;12.198;2023-08-12T09:53:12;31.70;44.00
484;DHT22;228;48.922;12.198;2023-08-12T09:56:14;33.50;43.20
484;DHT22;228;48.922;12.198;2023-08-12T09:59:01;33.40;42.00
484;DHT22;228;48.922;12.198;2023-08-12T10:01:43;34.10;42.40
484;DHT22;228;48.922;12.198;2023-08-12T10:04:14;33.30;40.50
484;DHT22;228;48.922;12.198;2023-08-12T10:06:44;33.00;42.50
484;DHT22;228;48.922;12.198;2023-08-12T10:22:13;33.60;41.40
484;DHT22;228;48.922;12.198;2023-08-12T10:58:04;36.10;37.50
484;DHT22;228;48.922;12.198;2023-08-12T11:04:38;35.40;37.60
484;DHT22;228;48.922;12.198;2023-08-12T11:23:55;37.60;32.80
484;DHT22;228;48.922;12.198;2023-08-12T11:27:10;38.50;32.80
484;DHT22;228;48.922;12.198;2023-08-12T11:33:12;40.40;31.70
484;DHT22;228;48.922;12.198;2023-08-12T11:35:56;40.30;30.30
484;DHT22;228;48.922;12.198;2023-08-12T11:42:21;40.70;32.20
484;DHT22;228;48.922;12.198;2023-08-12T11:49:41;43.80;27.10
484;DHT22;228;48.922;12.198;2023-08-12T12:50:03;49.50;21.80
484;DHT22;228;48.922;12.198;2023-08-12T13:05:36;47.90;23.10
484;DHT22;228;48.922;12.198;2023-08-12T13:32:46;48.80;22.60
484;DHT22;228;48.922;12.198;2023-08-12T14:59:18;51.30;18.20
484;DHT22;228;48.922;12.198;2023-08-12T15:28:42;37.30;32.90
484;DHT22;228;48.922;12.198;2023-08-12T15:31:38;36.60;33.50
484;DHT22;228;48.922;12.198;2023-08-12T15:35:52;36.00;35.10
484;DHT22;228;48.922;12.198;2023-08-12T15:53:17;34.30;39.90
484;DHT22;228;48.922;12.198;2023-08-12T16:06:10;33.70;42.80
484;DHT22;228;48.922;12.198;2023-08-12T16:16:31;32.10;46.10
484;DHT22;228;48.922;12.198;2023-08-12T16:18:57;31.40;48.20
484;DHT22;228;48.922;12.198;2023-08-12T16:21:29;29.80;49.20
484;DHT22;228;48.922;12.198;2023-08-12T16:23:56;28.50;52.10
484;DHT22;228;48.922;12.198;2023-08-12T16:26:23;27.50;53.00
484;DHT22;228;48.922;12.198;2023-08-12T16:28:52;27.10;54.80
484;DHT22;228;48.922;12.198;2023-08-12T16:31:18;27.10;54.20
484;DHT22;228;48.922;12.198;2023-08-12T16:33:47;27.30;51.70
484;DHT22;228;48.922;12.198;2023-08-12T16:36:14;27.80;51.40
484;DHT22;228;48.922;12.198;2023-08-12T16:38:40;28.50;49.60
484;DHT22;228;48.922;12.198;2023-08-12T16:41:06;28.90;47.90
484;DHT22;228;48.922;12.198;2023-08-12T16:43:56;28.60;46.80
484;DHT22;228;48.922;12.198;2023-08-12T16:46:25;28.20;51.20
484;DHT22;228;48.922;12.198;2023-08-12T16:48:53;28.40;53.70
484;DHT22;228;48.922;12.198;2023-08-12T16:51:23;28.20;57.00
484;DHT22;228;48.922;12.198;2023-08-12T16:53:52;27.70;58.90
484;DHT22;228;48.922;12.198;2023-08-12T16:56:18;27.30;61.50
484;DHT22;228;48.922;12.198;2023-08-12T16:58:48;27.60;60.10
484;DHT22;228;48.922;12.198;2023-08-12T17:01:17;27.70;60.10
484;DHT22;228;48.922;12.198;2023-08-12T17:03:46;27.60;60.90
484;DHT22;228;48.922;12.198;2023-08-12T17:06:13;27.30;62.80
484;DHT22;228;48.922;12.198;2023-08-12T17:08:39;27.60;61.60
484;DHT22;228;48.922;12.198;2023-08-12T17:11:08;27.60;61.20
484;DHT22;228;48.922;12.198;2023-08-12T17:14:00;27.00;62.10
484;DHT22;228;48.922;12.198;2023-08-12T17:16:56;26.70;62.60
484;DHT22;228;48.922;12.198;2023-08-12T17:19:37;26.80;61.00
484;DHT22;228;48.922;12.198;2023-08-12T17:22:06;26.10;61.40
484;DHT22;228;48.922;12.198;2023-08-12T17:24:46;25.80;63.30
484;DHT22;228;48.922;12.198;2023-08-12T17:27:35;25.70;66.00
484;DHT22;228;48.922;12.198;2023-08-12T17:30:26;25.50;65.80
484;DHT22;228;48.922;12.198;2023-08-12T17:34:13;25.60;65.60
484;DHT22;228;48.922;12.198;2023-08-12T17:36:23;25.30;66.30
484;DHT22;228;48.922;12.198;2023-08-12T17:38:49;25.20;67.80
484;DHT22;228;48.922;12.198;2023-08-12T17:41:16;24.50;70.70
484;DHT22;228;48.922;12.198;2023-08-12T17:43:42;24.40;71.40
484;DHT22;228;48.922;12.198;2023-08-12T17:46:11;24.20;73.10
484;DHT22;228;48.922;12.198;2023-08-12T17:48:53;24.10;73.70
484;DHT22;228;48.922;12.198;2023-08-12T17:51:44;24.30;73.50
484;DHT22;228;48.922;12.198;2023-08-12T17:55:37;24.20;73.10
484;DHT22;228;48.922;12.198;2023-08-12T17:58:45;24.30;72.60
484;DHT22;228;48.922;12.198;2023-08-12T18:02:18;24.80;72.90
484;DHT22;228;48.922;12.198;2023-08-12T18:06:44;24.60;73.10
484;DHT22;228;48.922;12.198;2023-08-12T18:10:29;24.60;73.10
484;DHT22;228;48.922;12.198;2023-08-12T18:13:35;24.30;73.90
484;DHT22;228;48.922;12.198;2023-08-12T19:45:35;23.90;77.50
484;DHT22;228;48.922;12.198;2023-08-12T19:52:12;22.60;85.10
484;DHT22;228;48.922;12.198;2023-08-12T19:55:07;22.50;85.30
484;DHT22;228;48.922;12.198;2023-08-12T20:05:24;22.70;88.20
